sensor_id;sensor_type;location;lat;lon;timestamp;temperature;humidity
54960;DHT22;40860;51.710;8.736;2023-05-07T00:02:45;14.60;99.90
54960;DHT22;40860;51.710;8.736;2023-05-07T00:06:48;14.50;99.90
54960;DHT22;40860;51.710;8.736;2023-05-07T00:10:51;14.50;99.90
54960;DHT22;40860;51.710;8.736;2023-05-07T00:14:54;14.50;99.90
54960;DHT22;40860;51.710;8.736;2023-05-07T00:18:58;14.50;99.90
54960;DHT22;40860;51.710;8.736;2023-05-07T00:23:01;14.50;99.90
54960;DHT22;40860;51.710;8.736;2023-05-07T00:27:04;14.50;99.90
54960;DHT22;40860;51.710;8.736;2023-05-07T00:31:07;14.50;99.90
54960;DHT22;40860;51.710;8.736;2023-05-07T00:35:11;14.40;99.90
54960;DHT22;40860;51.710;8.736;2023-05-07T00:39:14;14.40;99.90
54960;DHT22;40860;51.710;8.736;2023-05-07T00:43:17;14.40;99.90
54960;DHT22;40860;51.710;8.736;2023-05-07T00:47:20;14.40;99.90
54960;DHT22;40860;51.710;8.736;2023-05-07T00:51:25;14.40;99.90
54960;DHT22;40860;51.710;8.736;2023-05-07T00:55:29;14.40;99.90
54960;DHT22;40860;51.710;8.736;2023-05-07T00:59:32;14.40;99.90
54960;DHT22;40860;51.710;8.736;2023-05-07T01:03:37;14.30;99.90
54960;DHT22;40860;51.710;8.736;2023-05-07T01:07:42;14.30;99.90
54960;DHT22;40860;51.710;8.736;2023-05-07T01:11:45;14.30;99.90
54960;DHT22;40860;51.710;8.736;2023-05-07T01:15:49;14.30;99.90
54960;DHT22;40860;51.710;8.736;2023-05-07T01:19:52;14.30;99.90
54960;DHT22;40860;51.710;8.736;2023-05-07T01:23:58;14.30;99.90
54960;DHT22;40860;51.710;8.736;2023-05-07T01:28:01;14.20;99.90
54960;DHT22;40860;51.710;8.736;2023-05-07T01:32:09;14.20;99.90
54960;DHT22;40860;51.710;8.736;2023-05-07T01:36:13;14.20;99.90
54960;DHT22;40860;51.710;8.736;2023-05-07T01:40:18;14.10;99.90
54960;DHT22;40860;51.710;8.736;2023-05-07T01:44:22;14.10;99.90
54960;DHT22;40860;51.710;8.736;2023-05-07T01:48:25;14.10;99.90
54960;DHT22;40860;51.710;8.736;2023-05-07T01:52:29;14.10;99.90
54960;DHT22;40860;51.710;8.736;2023-05-07T01:56:33;14.00;99.90
54960;DHT22;40860;51.710;8.736;2023-05-07T02:00:37;13.90;99.90
54960;DHT22;40860;51.710;8.736;2023-05-07T02:04:42;13.90;99.90
54960;DHT22;40860;51.710;8.736;2023-05-07T02:08:46;13.80;99.90
54960;DHT22;40860;51.710;8.736;2023-05-07T02:12:52;13.80;99.90
54960;DHT22;40860;51.710;8.736;2023-05-07T02:16:55;13.80;99.90
54960;DHT22;40860;51.710;8.736;2023-05-07T02:20:58;13.80;99.90
54960;DHT22;40860;51.710;8.736;2023-05-07T02:25:01;13.70;99.90
54960;DHT22;40860;51.710;8.736;2023-05-07T02:29:05;13.60;99.90
54960;DHT22;40860;51.710;8.736;2023-05-07T02:33:08;13.60;99.90
54960;DHT22;40860;51.710;8.736;2023-05-07T02:37:15;13.50;99.90
54960;DHT22;40860;51.710;8.736;2023-05-07T02:41:18;13.50;99.90
54960;DHT22;40860;51.710;8.736;2023-05-07T02:45:23;13.50;99.90
54960;DHT22;40860;51.710;8.736;2023-05-07T02:49:28;13.50;99.90
54960;DHT22;40860;51.710;8.736;2023-05-07T02:53:31;13.40;99.90
54960;DHT22;40860;51.710;8.736;2023-05-07T02:57:34;13.40;99.90
54960;DHT22;40860;51.710;8.736;2023-05-07T03:01:42;13.40;99.90
54960;DHT22;40860;51.710;8.736;2023-05-07T03:05:48;13.30;99.90
54960;DHT22;40860;51.710;8.736;2023-05-07T03:09:51;13.40;99.90
54960;DHT22;40860;51.710;8.736;2023-05-07T03:13:55;13.30;99.90
54960;DHT22;40860;51.710;8.736;2023-05-07T03:17:59;13.30;99.90
54960;DHT22;40860;51.710;8.736;2023-05-07T03:22:05;13.30;99.90
54960;DHT22;40860;51.710;8.736;2023-05-07T03:26:08;13.20;99.90
54960;DHT22;40860;51.710;8.736;2023-05-07T03:30:12;13.20;99.90
54960;DHT22;40860;51.710;8.736;2023-05-07T03:34:21;13.10;99.90
54960;DHT22;40860;51.710;8.736;2023-05-07T03:38:25;13.10;99.90
54960;DHT22;40860;51.710;8.736;2023-05-07T03:42:31;13.10;99.90
54960;DHT22;40860;51.710;8.736;2023-05-07T03:46:34;13.10;99.90
54960;DHT22;40860;51.710;8.736;2023-05-07T03:50:39;13.00;99.90
54960;DHT22;40860;51.710;8.736;2023-05-07T03:54:42;13.00;99.90
54960;DHT22;40860;51.710;8.736;2023-05-07T03:58:48;13.00;99.90
54960;DHT22;40860;51.710;8.736;2023-05-07T04:02:51;12.90;99.90
54960;DHT22;40860;51.710;8.736;2023-05-07T04:07:01;12.90;99.90
54960;DHT22;40860;51.710;8.736;2023-05-07T04:11:09;12.90;99.90
54960;DHT22;40860;51.710;8.736;2023-05-07T04:15:12;12.90;99.90
54960;DHT22;40860;51.710;8.736;2023-05-07T04:19:16;12.90;99.90
54960;DHT22;40860;51.710;8.736;2023-05-07T04:23:24;12.90;99.90
54960;DHT22;40860;51.710;8.736;2023-05-07T04:27:28;12.90;99.90
54960;DHT22;40860;51.710;8.736;2023-05-07T04:31:31;12.90;99.90
54960;DHT22;40860;51.710;8.736;2023-05-07T04:35:38;12.90;99.90
54960;DHT22;40860;51.710;8.736;2023-05-07T04:39:42;12.80;99.90
54960;DHT22;40860;51.710;8.736;2023-05-07T04:43:46;12.80;99.90
54960;DHT22;40860;51.710;8.736;2023-05-07T04:47:52;12.80;99.90
54960;DHT22;40860;51.710;8.736;2023-05-07T04:51:55;12.80;99.90
54960;DHT22;40860;51.710;8.736;2023-05-07T04:55:59;12.80;99.90
54960;DHT22;40860;51.710;8.736;2023-05-07T05:00:10;12.80;99.90
54960;DHT22;40860;51.710;8.736;2023-05-07T05:04:17;12.80;99.90
54960;DHT22;40860;51.710;8.736;2023-05-07T05:08:21;12.80;99.90
54960;DHT22;40860;51.710;8.736;2023-05-07T05:12:26;12.80;99.90
54960;DHT22;40860;51.710;8.736;2023-05-07T05:16:29;12.80;99.90
54960;DHT22;40860;51.710;8.736;2023-05-07T05:20:33;12.90;99.90
54960;DHT22;40860;51.710;8.736;2023-05-07T05:24:43;12.90;99.90
54960;DHT22;40860;51.710;8.736;2023-05-07T05:28:47;12.90;99.90
54960;DHT22;40860;51.710;8.736;2023-05-07T05:32:54;12.90;99.90
54960;DHT22;40860;51.710;8.736;2023-05-07T05:37:01;13.00;99.90
54960;DHT22;40860;51.710;8.736;2023-05-07T05:41:04;13.10;99.90
54960;DHT22;40860;51.710;8.736;2023-05-07T05:45:10;13.10;99.90
54960;DHT22;40860;51.710;8.736;2023-05-07T05:49:14;13.10;99.90
54960;DHT22;40860;51.710;8.736;2023-05-07T05:53:17;13.10;99.90
54960;DHT22;40860;51.710;8.736;2023-05-07T05:57:20;13.10;99.90
54960;DHT22;40860;51.710;8.736;2023-05-07T06:01:24;13.20;99.90
54960;DHT22;40860;51.710;8.736;2023-05-07T06:05:30;13.20;99.90
54960;DHT22;40860;51.710;8.736;2023-05-07T06:09:33;13.10;99.90
54960;DHT22;40860;51.710;8.736;2023-05-07T06:13:36;13.10;99.90
54960;DHT22;40860;51.710;8.736;2023-05-07T06:17:40;13.10;99.90
54960;DHT22;40860;51.710;8.736;2023-05-07T06:21:45;13.20;99.90
54960;DHT22;40860;51.710;8.736;2023-05-07T06:25:49;13.20;99.90
54960;DHT22;40860;51.710;8.736;2023-05-07T06:29:53;13.20;99.90
54960;DHT22;40860;51.710;8.736;2023-05-07T06:33:58;13.30;99.90
54960;DHT22;40860;51.710;8.736;2023-05-07T06:38:07;13.30;99.90
54960;DHT22;40860;51.710;8.736;2023-05-07T06:42:10;13.50;99.90
54960;DHT22;40860;51.710;8.736;2023-05-07T06:46:16;13.40;99.90
54960;DHT22;40860;51.710;8.736;2023-05-07T06:50:22;13.40;99.60
54960;DHT22;40860;51.710;8.736;2023-05-07T06:54:29;13.40;99.70
54960;DHT22;40860;51.710;8.736;2023-05-07T06:58:33;13.40;99.90
54960;DHT22;40860;51.710;8.736;2023-05-07T07:02:36;13.60;99.90
54960;DHT22;40860;51.710;8.736;2023-05-07T07:06:41;13.60;99.40
54960;DHT22;40860;51.710;8.736;2023-05-07T07:10:47;13.60;99.30
54960;DHT22;40860;51.710;8.736;2023-05-07T07:14:50;13.60;99.30
54960;DHT22;40860;51.710;8.736;2023-05-07T07:18:53;13.70;99.20
54960;DHT22;40860;51.710;8.736;2023-05-07T07:22:57;13.70;99.20
54960;DHT22;40860;51.710;8.736;2023-05-07T07:27:01;13.80;99.00
54960;DHT22;40860;51.710;8.736;2023-05-07T07:31:05;13.80;99.00
54960;DHT22;40860;51.710;8.736;2023-05-07T07:35:09;13.70;98.60
54960;DHT22;40860;51.710;8.736;2023-05-07T07:39:14;13.70;98.50
54960;DHT22;40860;51.710;8.736;2023-05-07T07:43:18;13.80;98.60
54960;DHT22;40860;51.710;8.736;2023-05-07T07:47:21;13.90;98.40
54960;DHT22;40860;51.710;8.736;2023-05-07T07:51:26;14.00;98.50
54960;DHT22;40860;51.710;8.736;2023-05-07T07:55:31;14.10;98.30
54960;DHT22;40860;51.710;8.736;2023-05-07T07:59:35;14.20;98.00
54960;DHT22;40860;51.710;8.736;2023-05-07T08:03:39;14.20;98.00
54960;DHT22;40860;51.710;8.736;2023-05-07T08:07:45;14.30;97.70
54960;DHT22;40860;51.710;8.736;2023-05-07T08:11:57;14.40;97.40
54960;DHT22;40860;51.710;8.736;2023-05-07T08:16:00;14.50;97.20
54960;DHT22;40860;51.710;8.736;2023-05-07T08:20:04;14.50;97.00
54960;DHT22;40860;51.710;8.736;2023-05-07T08:24:08;14.60;96.90
54960;DHT22;40860;51.710;8.736;2023-05-07T08:28:12;14.80;96.80
54960;DHT22;40860;51.710;8.736;2023-05-07T08:32:15;14.80;96.00
54960;DHT22;40860;51.710;8.736;2023-05-07T08:36:18;14.90;96.00
54960;DHT22;40860;51.710;8.736;2023-05-07T08:40:25;15.10;96.40
54960;DHT22;40860;51.710;8.736;2023-05-07T08:44:33;15.20;95.80
54960;DHT22;40860;51.710;8.736;2023-05-07T08:48:37;15.30;95.60
54960;DHT22;40860;51.710;8.736;2023-05-07T08:52:45;15.50;95.40
54960;DHT22;40860;51.710;8.736;2023-05-07T08:56:48;15.80;95.10
54960;DHT22;40860;51.710;8.736;2023-05-07T09:00:54;15.80;94.40
54960;DHT22;40860;51.710;8.736;2023-05-07T09:04:57;15.90;94.40
54960;DHT22;40860;51.710;8.736;2023-05-07T09:09:01;16.30;94.60
54960;DHT22;40860;51.710;8.736;2023-05-07T09:13:05;16.50;93.30
54960;DHT22;40860;51.710;8.736;2023-05-07T09:17:10;16.80;93.30
54960;DHT22;40860;51.710;8.736;2023-05-07T09:21:18;16.70;92.30
54960;DHT22;40860;51.710;8.736;2023-05-07T09:25:28;17.00;92.40
54960;DHT22;40860;51.710;8.736;2023-05-07T09:29:33;17.10;91.80
54960;DHT22;40860;51.710;8.736;2023-05-07T09:33:40;17.30;91.70
54960;DHT22;40860;51.710;8.736;2023-05-07T09:37:45;17.40;91.00
54960;DHT22;40860;51.710;8.736;2023-05-07T09:41:49;17.70;91.60
54960;DHT22;40860;51.710;8.736;2023-05-07T09:46:07;18.10;90.90
54960;DHT22;40860;51.710;8.736;2023-05-07T09:50:18;17.90;89.10
54960;DHT22;40860;51.710;8.736;2023-05-07T09:54:22;17.50;89.20
54960;DHT22;40860;51.710;8.736;2023-05-07T09:58:28;17.40;90.40
54960;DHT22;40860;51.710;8.736;2023-05-07T10:02:33;17.70;90.60
54960;DHT22;40860;51.710;8.736;2023-05-07T10:06:40;17.50;90.50
54960;DHT22;40860;51.710;8.736;2023-05-07T10:10:44;17.60;90.80
54960;DHT22;40860;51.710;8.736;2023-05-07T10:14:53;17.90;90.80
54960;DHT22;40860;51.710;8.736;2023-05-07T10:18:58;18.00;88.90
54960;DHT22;40860;51.710;8.736;2023-05-07T10:23:04;17.90;88.90
54960;DHT22;40860;51.710;8.736;2023-05-07T10:27:16;17.90;89.20
54960;DHT22;40860;51.710;8.736;2023-05-07T10:31:40;17.90;88.60
54960;DHT22;40860;51.710;8.736;2023-05-07T10:35:46;17.90;89.60
54960;DHT22;40860;51.710;8.736;2023-05-07T10:39:53;18.10;89.90
54960;DHT22;40860;51.710;8.736;2023-05-07T10:43:57;18.60;89.00
54960;DHT22;40860;51.710;8.736;2023-05-07T10:48:11;18.80;86.40
54960;DHT22;40860;51.710;8.736;2023-05-07T10:52:34;18.70;86.20
54960;DHT22;40860;51.710;8.736;2023-05-07T10:56:43;18.90;86.70
54960;DHT22;40860;51.710;8.736;2023-05-07T11:00:55;19.00;86.90
54960;DHT22;40860;51.710;8.736;2023-05-07T11:05:20;18.90;85.80
54960;DHT22;40860;51.710;8.736;2023-05-07T11:09:55;18.80;85.40
54960;DHT22;40860;51.710;8.736;2023-05-07T11:14:45;18.50;86.40
54960;DHT22;40860;51.710;8.736;2023-05-07T11:18:53;18.60;86.30
54960;DHT22;40860;51.710;8.736;2023-05-07T11:28:04;18.80;85.40
54960;DHT22;40860;51.710;8.736;2023-05-07T11:32:10;18.80;84.80
54960;DHT22;40860;51.710;8.736;2023-05-07T11:36:23;18.90;86.70
54960;DHT22;40860;51.710;8.736;2023-05-07T11:40:28;19.10;85.80
54960;DHT22;40860;51.710;8.736;2023-05-07T11:44:42;19.40;84.90
54960;DHT22;40860;51.710;8.736;2023-05-07T11:48:46;19.30;83.20
54960;DHT22;40860;51.710;8.736;2023-05-07T11:52:51;19.20;84.30
54960;DHT22;40860;51.710;8.736;2023-05-07T11:56:56;19.20;84.70
54960;DHT22;40860;51.710;8.736;2023-05-07T12:01:01;19.30;83.80
54960;DHT22;40860;51.710;8.736;2023-05-07T12:05:05;19.40;83.20
54960;DHT22;40860;51.710;8.736;2023-05-07T12:09:08;19.40;83.20
54960;DHT22;40860;51.710;8.736;2023-05-07T12:13:16;19.40;83.50
54960;DHT22;40860;51.710;8.736;2023-05-07T12:17:19;19.60;83.40
54960;DHT22;40860;51.710;8.736;2023-05-07T12:21:24;19.80;80.30
54960;DHT22;40860;51.710;8.736;2023-05-07T12:25:29;19.60;81.20
54960;DHT22;40860;51.710;8.736;2023-05-07T12:29:32;19.60;81.70
54960;DHT22;40860;51.710;8.736;2023-05-07T12:33:35;19.90;81.00
54960;DHT22;40860;51.710;8.736;2023-05-07T12:37:40;20.20;80.90
54960;DHT22;40860;51.710;8.736;2023-05-07T12:41:53;20.40;80.10
54960;DHT22;40860;51.710;8.736;2023-05-07T12:45:59;20.40;78.70
54960;DHT22;40860;51.710;8.736;2023-05-07T12:50:05;20.20;78.10
54960;DHT22;40860;51.710;8.736;2023-05-07T12:54:09;19.90;79.30
54960;DHT22;40860;51.710;8.736;2023-05-07T12:58:16;19.80;79.50
54960;DHT22;40860;51.710;8.736;2023-05-07T13:02:19;20.00;78.80
54960;DHT22;40860;51.710;8.736;2023-05-07T13:06:22;19.90;78.40
54960;DHT22;40860;51.710;8.736;2023-05-07T13:10:27;19.90;78.20
54960;DHT22;40860;51.710;8.736;2023-05-07T13:14:30;19.90;79.60
54960;DHT22;40860;51.710;8.736;2023-05-07T13:18:34;19.90;79.20
54960;DHT22;40860;51.710;8.736;2023-05-07T13:22:37;19.90;79.50
54960;DHT22;40860;51.710;8.736;2023-05-07T13:26:41;19.90;78.30
54960;DHT22;40860;51.710;8.736;2023-05-07T13:30:46;19.90;79.30
54960;DHT22;40860;51.710;8.736;2023-05-07T13:34:49;20.00;79.30
54960;DHT22;40860;51.710;8.736;2023-05-07T13:38:52;20.40;78.40
54960;DHT22;40860;51.710;8.736;2023-05-07T13:42:57;20.50;78.80
54960;DHT22;40860;51.710;8.736;2023-05-07T13:47:01;20.60;77.30
54960;DHT22;40860;51.710;8.736;2023-05-07T13:51:04;20.70;77.00
54960;DHT22;40860;51.710;8.736;2023-05-07T13:55:07;20.50;77.10
54960;DHT22;40860;51.710;8.736;2023-05-07T13:59:11;21.00;76.30
54960;DHT22;40860;51.710;8.736;2023-05-07T14:03:15;21.40;75.60
54960;DHT22;40860;51.710;8.736;2023-05-07T14:07:19;21.50;73.20
54960;DHT22;40860;51.710;8.736;2023-05-07T14:11:22;21.50;73.50
54960;DHT22;40860;51.710;8.736;2023-05-07T14:15:26;21.60;71.10
54960;DHT22;40860;51.710;8.736;2023-05-07T14:19:29;21.40;71.40
54960;DHT22;40860;51.710;8.736;2023-05-07T14:23:32;21.40;71.30
54960;DHT22;40860;51.710;8.736;2023-05-07T14:27:35;21.50;69.90
54960;DHT22;40860;51.710;8.736;2023-05-07T14:31:40;21.60;71.00
54960;DHT22;40860;51.710;8.736;2023-05-07T14:35:43;21.30;69.60
54960;DHT22;40860;51.710;8.736;2023-05-07T14:39:56;21.50;70.20
54960;DHT22;40860;51.710;8.736;2023-05-07T14:43:59;21.30;70.90
54960;DHT22;40860;51.710;8.736;2023-05-07T14:48:07;21.00;71.30
54960;DHT22;40860;51.710;8.736;2023-05-07T14:52:11;20.70;71.90
54960;DHT22;40860;51.710;8.736;2023-05-07T14:56:14;20.40;73.40
54960;DHT22;40860;51.710;8.736;2023-05-07T15:00:17;20.40;73.00
54960;DHT22;40860;51.710;8.736;2023-05-07T15:04:25;20.40;74.60
54960;DHT22;40860;51.710;8.736;2023-05-07T15:08:28;20.40;74.10
54960;DHT22;40860;51.710;8.736;2023-05-07T15:12:31;20.20;74.50
54960;DHT22;40860;51.710;8.736;2023-05-07T15:16:34;19.90;74.50
54960;DHT22;40860;51.710;8.736;2023-05-07T15:20:39;19.70;75.70
54960;DHT22;40860;51.710;8.736;2023-05-07T15:24:43;19.60;75.50
54960;DHT22;40860;51.710;8.736;2023-05-07T15:28:51;19.40;76.30
54960;DHT22;40860;51.710;8.736;2023-05-07T15:33:00;19.30;76.80
54960;DHT22;40860;51.710;8.736;2023-05-07T15:37:05;19.00;77.30
54960;DHT22;40860;51.710;8.736;2023-05-07T15:41:09;19.10;78.00
54960;DHT22;40860;51.710;8.736;2023-05-07T15:45:12;19.10;77.90
54960;DHT22;40860;51.710;8.736;2023-05-07T15:49:16;18.90;77.40
54960;DHT22;40860;51.710;8.736;2023-05-07T15:53:20;18.80;78.20
54960;DHT22;40860;51.710;8.736;2023-05-07T15:57:24;18.70;78.90
54960;DHT22;40860;51.710;8.736;2023-05-07T16:01:27;18.60;79.60
54960;DHT22;40860;51.710;8.736;2023-05-07T16:05:31;18.60;79.60
54960;DHT22;40860;51.710;8.736;2023-05-07T16:09:35;18.40;79.60
54960;DHT22;40860;51.710;8.736;2023-05-07T16:13:39;18.20;79.90
54960;DHT22;40860;51.710;8.736;2023-05-07T16:17:45;18.20;80.70
54960;DHT22;40860;51.710;8.736;2023-05-07T16:21:48;18.30;81.10
54960;DHT22;40860;51.710;8.736;2023-05-07T16:25:53;18.10;80.40
54960;DHT22;40860;51.710;8.736;2023-05-07T16:29:56;18.10;80.90
54960;DHT22;40860;51.710;8.736;2023-05-07T16:33:59;18.00;81.80
54960;DHT22;40860;51.710;8.736;2023-05-07T16:38:02;18.10;81.10
54960;DHT22;40860;51.710;8.736;2023-05-07T16:42:15;18.00;81.30
54960;DHT22;40860;51.710;8.736;2023-05-07T16:46:18;17.60;81.70
54960;DHT22;40860;51.710;8.736;2023-05-07T16:50:21;17.50;82.10
54960;DHT22;40860;51.710;8.736;2023-05-07T16:54:24;17.50;83.20
54960;DHT22;40860;51.710;8.736;2023-05-07T16:58:29;17.40;83.40
54960;DHT22;40860;51.710;8.736;2023-05-07T17:02:34;17.30;83.10
54960;DHT22;40860;51.710;8.736;2023-05-07T17:10:44;16.70;98.40
54960;DHT22;40860;51.710;8.736;2023-05-07T17:14:48;16.80;91.40
54960;DHT22;40860;51.710;8.736;2023-05-07T17:18:51;16.70;85.40
54960;DHT22;40860;51.710;8.736;2023-05-07T17:22:54;16.60;85.50
54960;DHT22;40860;51.710;8.736;2023-05-07T17:26:58;16.60;85.70
54960;DHT22;40860;51.710;8.736;2023-05-07T17:31:03;16.60;85.90
54960;DHT22;40860;51.710;8.736;2023-05-07T17:35:07;16.60;86.00
54960;DHT22;40860;51.710;8.736;2023-05-07T17:39:11;16.50;86.10
54960;DHT22;40860;51.710;8.736;2023-05-07T17:43:15;16.40;87.00
54960;DHT22;40860;51.710;8.736;2023-05-07T17:47:20;16.40;87.20
54960;DHT22;40860;51.710;8.736;2023-05-07T17:51:32;16.30;87.80
54960;DHT22;40860;51.710;8.736;2023-05-07T17:55:58;16.10;87.90
54960;DHT22;40860;51.710;8.736;2023-05-07T18:00:04;16.00;88.60
54960;DHT22;40860;51.710;8.736;2023-05-07T18:04:10;15.90;88.90
54960;DHT22;40860;51.710;8.736;2023-05-07T18:08:13;15.80;89.00
54960;DHT22;40860;51.710;8.736;2023-05-07T18:12:19;15.70;89.70
54960;DHT22;40860;51.710;8.736;2023-05-07T18:16:22;15.60;90.10
54960;DHT22;40860;51.710;8.736;2023-05-07T18:20:27;16.00;97.80
54960;DHT22;40860;51.710;8.736;2023-05-07T18:24:39;15.40;91.20
54960;DHT22;40860;51.710;8.736;2023-05-07T18:28:46;15.40;90.90
54960;DHT22;40860;51.710;8.736;2023-05-07T18:32:49;15.30;96.00
54960;DHT22;40860;51.710;8.736;2023-05-07T18:36:54;15.30;94.50
54960;DHT22;40860;51.710;8.736;2023-05-07T18:41:00;15.20;91.10
54960;DHT22;40860;51.710;8.736;2023-05-07T18:45:03;15.10;91.30
54960;DHT22;40860;51.710;8.736;2023-05-07T18:49:07;15.00;91.50
54960;DHT22;40860;51.710;8.736;2023-05-07T18:53:13;14.90;91.60
54960;DHT22;40860;51.710;8.736;2023-05-07T18:57:16;14.80;91.80
54960;DHT22;40860;51.710;8.736;2023-05-07T19:01:19;14.70;91.90
54960;DHT22;40860;51.710;8.736;2023-05-07T19:05:22;14.70;92.20
54960;DHT22;40860;51.710;8.736;2023-05-07T19:09:29;14.60;92.10
54960;DHT22;40860;51.710;8.736;2023-05-07T19:13:35;14.60;92.20
54960;DHT22;40860;51.710;8.736;2023-05-07T19:17:38;14.40;92.30
54960;DHT22;40860;51.710;8.736;2023-05-07T19:21:42;14.30;92.40
54960;DHT22;40860;51.710;8.736;2023-05-07T19:25:56;14.20;92.50
54960;DHT22;40860;51.710;8.736;2023-05-07T19:29:59;14.10;92.60
54960;DHT22;40860;51.710;8.736;2023-05-07T19:34:02;13.90;92.40
54960;DHT22;40860;51.710;8.736;2023-05-07T19:38:05;13.90;92.70
54960;DHT22;40860;51.710;8.736;2023-05-07T19:42:10;13.80;92.70
54960;DHT22;40860;51.710;8.736;2023-05-07T19:46:15;13.70;92.90
54960;DHT22;40860;51.710;8.736;2023-05-07T19:50:18;13.60;93.10
54960;DHT22;40860;51.710;8.736;2023-05-07T19:54:23;13.50;93.10
54960;DHT22;40860;51.710;8.736;2023-05-07T19:58:27;13.40;93.30
54960;DHT22;40860;51.710;8.736;2023-05-07T20:02:30;13.40;93.30
54960;DHT22;40860;51.710;8.736;2023-05-07T20:06:33;13.30;93.30
54960;DHT22;40860;51.710;8.736;2023-05-07T20:10:36;13.20;93.40
54960;DHT22;40860;51.710;8.736;2023-05-07T20:14:41;13.20;93.30
54960;DHT22;40860;51.710;8.736;2023-05-07T20:18:44;13.10;93.40
54960;DHT22;40860;51.710;8.736;2023-05-07T20:22:53;13.00;93.70
54960;DHT22;40860;51.710;8.736;2023-05-07T20:26:56;13.00;93.60
54960;DHT22;40860;51.710;8.736;2023-05-07T20:31:01;12.90;93.60
54960;DHT22;40860;51.710;8.736;2023-05-07T20:35:05;12.90;93.70
54960;DHT22;40860;51.710;8.736;2023-05-07T20:39:09;12.90;93.90
54960;DHT22;40860;51.710;8.736;2023-05-07T20:43:22;12.80;93.70
54960;DHT22;40860;51.710;8.736;2023-05-07T20:47:30;12.70;93.70
54960;DHT22;40860;51.710;8.736;2023-05-07T20:51:34;12.60;93.70
54960;DHT22;40860;51.710;8.736;2023-05-07T20:55:37;12.60;93.70
54960;DHT22;40860;51.710;8.736;2023-05-07T20:59:44;12.50;93.70
54960;DHT22;40860;51.710;8.736;2023-05-07T21:03:49;12.40;94.10
54960;DHT22;40860;51.710;8.736;2023-05-07T21:07:55;12.40;93.90
54960;DHT22;40860;51.710;8.736;2023-05-07T21:11:58;12.30;94.00
54960;DHT22;40860;51.710;8.736;2023-05-07T21:16:01;12.30;94.10
54960;DHT22;40860;51.710;8.736;2023-05-07T21:20:07;12.20;94.20
54960;DHT22;40860;51.710;8.736;2023-05-07T21:24:11;12.10;94.10
54960;DHT22;40860;51.710;8.736;2023-05-07T21:28:14;12.10;94.40
54960;DHT22;40860;51.710;8.736;2023-05-07T21:32:21;12.00;94.50
54960;DHT22;40860;51.710;8.736;2023-05-07T21:36:29;12.00;94.60
54960;DHT22;40860;51.710;8.736;2023-05-07T21:40:32;12.00;94.60
54960;DHT22;40860;51.710;8.736;2023-05-07T21:44:49;11.90;94.70
54960;DHT22;40860;51.710;8.736;2023-05-07T21:48:52;11.90;94.80
54960;DHT22;40860;51.710;8.736;2023-05-07T21:52:59;11.90;94.80
54960;DHT22;40860;51.710;8.736;2023-05-07T21:57:02;11.80;94.90
54960;DHT22;40860;51.710;8.736;2023-05-07T22:01:05;11.80;94.90
54960;DHT22;40860;51.710;8.736;2023-05-07T22:05:10;11.80;95.10
54960;DHT22;40860;51.710;8.736;2023-05-07T22:09:14;11.80;95.10
54960;DHT22;40860;51.710;8.736;2023-05-07T22:13:17;11.70;95.10
54960;DHT22;40860;51.710;8.736;2023-05-07T22:17:20;11.70;95.10
54960;DHT22;40860;51.710;8.736;2023-05-07T22:21:24;11.70;95.20
54960;DHT22;40860;51.710;8.736;2023-05-07T22:25:37;11.70;95.30
54960;DHT22;40860;51.710;8.736;2023-05-07T22:29:39;11.70;95.20
54960;DHT22;40860;51.710;8.736;2023-05-07T22:33:42;11.70;95.30
54960;DHT22;40860;51.710;8.736;2023-05-07T22:37:45;11.70;95.40
54960;DHT22;40860;51.710;8.736;2023-05-07T22:41:49;11.70;95.40
54960;DHT22;40860;51.710;8.736;2023-05-07T22:45:57;11.70;95.40
54960;DHT22;40860;51.710;8.736;2023-05-07T22:50:00;11.70;95.50
54960;DHT22;40860;51.710;8.736;2023-05-07T22:54:05;11.70;95.80
54960;DHT22;40860;51.710;8.736;2023-05-07T22:58:11;11.60;95.50
54960;DHT22;40860;51.710;8.736;2023-05-07T23:02:14;11.60;95.60
54960;DHT22;40860;51.710;8.736;2023-05-07T23:06:16;11.60;95.60
54960;DHT22;40860;51.710;8.736;2023-05-07T23:10:19;11.60;95.60
54960;DHT22;40860;51.710;8.736;2023-05-07T23:14:24;11.60;95.70
54960;DHT22;40860;51.710;8.736;2023-05-07T23:18:27;11.60;95.70
54960;DHT22;40860;51.710;8.736;2023-05-07T23:22:30;11.60;95.70
54960;DHT22;40860;51.710;8.736;2023-05-07T23:26:33;11.60;95.70
54960;DHT22;40860;51.710;8.736;2023-05-07T23:30:38;11.50;95.60
54960;DHT22;40860;51.710;8.736;2023-05-07T23:34:41;11.50;95.60
54960;DHT22;40860;51.710;8.736;2023-05-07T23:38:44;11.50;95.80
54960;DHT22;40860;51.710;8.736;2023-05-07T23:42:47;11.50;95.80
54960;DHT22;40860;51.710;8.736;2023-05-07T23:46:51;11.50;95.60
54960;DHT22;40860;51.710;8.736;2023-05-07T23:50:54;11.50;95.70
54960;DHT22;40860;51.710;8.736;2023-05-07T23:54:57;11.40;95.80
54960;DHT22;40860;51.710;8.736;2023-05-07T23:59:00;11.50;95.90
